Time;durP1;ratioP1;P1;durP2;ratioP2;P2;SDS_P1;SDS_P2;PMS_P1;PMS_P2;Temp;Humidity;BMP_temperature;BMP_pressure;BME280_temperature;BME280_humidity;BME280_pressure;Samples;Min_cycle;Max_cycle;Signal;HPM_P1;HPM_P2
2022/07/08 00:01:04;;;;;;;4.80;1.08;;;15.10;99.90;;;;;;5066681;28;20060;-64
2022/07/08 00:03:30;;;;;;;8.80;1.38;;;15.10;99.90;;;;;;5067098;28;20266;-64
2022/07/08 00:05:55;;;;;;;6.88;1.50;;;15.10;99.90;;;;;;5067243;28;20055;-64
2022/07/08 00:08:21;;;;;;;4.00;1.10;;;15.10;99.90;;;;;;5068015;28;20036;-64
2022/07/08 00:10:47;;;;;;;8.00;1.30;;;15.10;99.90;;;;;;5068250;28;20083;-64
2022/07/08 00:13:12;;;;;;;8.27;1.58;;;15.00;99.90;;;;;;5067644;28;20068;-64
2022/07/08 00:15:38;;;;;;;8.95;1.55;;;15.00;99.90;;;;;;5067878;28;20044;-64
2022/07/08 00:18:04;;;;;;;8.40;1.40;;;15.00;99.90;;;;;;5068011;28;20132;-64
2022/07/08 00:20:29;;;;;;;5.18;1.83;;;15.00;99.90;;;;;;5067265;28;20052;-64
2022/07/08 00:22:56;;;;;;;4.95;1.58;;;15.00;99.90;;;;;;5067832;28;20135;-64
2022/07/08 00:25:21;;;;;;;7.15;1.50;;;15.00;99.90;;;;;;5067644;28;20043;-65
2022/07/08 00:27:47;;;;;;;3.40;1.73;;;15.00;99.90;;;;;;5067107;28;20078;-64
2022/07/08 00:30:13;;;;;;;9.68;2.05;;;15.00;99.90;;;;;;5067816;28;20506;-64
2022/07/08 00:32:39;;;;;;;8.75;1.42;;;15.20;99.90;;;;;;5066859;28;20462;-64
2022/07/08 00:35:05;;;;;;;8.57;1.08;;;14.90;99.90;;;;;;5067431;28;20526;-64
2022/07/08 00:37:31;;;;;;;5.47;1.10;;;14.90;99.90;;;;;;5067843;28;20060;-64
2022/07/08 00:39:56;;;;;;;9.27;1.83;;;14.90;99.90;;;;;;5065158;28;20060;-64
2022/07/08 00:42:22;;;;;;;5.22;1.00;;;14.90;99.90;;;;;;5067796;28;20051;-64
2022/07/08 00:44:48;;;;;;;7.22;1.33;;;14.90;99.90;;;;;;5067332;28;20071;-64
2022/07/08 00:47:13;;;;;;;7.65;1.70;;;14.80;99.90;;;;;;5067076;28;20080;-64
2022/07/08 00:49:40;;;;;;;8.75;1.77;;;14.90;99.90;;;;;;5067489;28;20553;-64
2022/07/08 00:52:06;;;;;;;6.13;1.40;;;14.80;99.90;;;;;;5066908;28;20443;-64
2022/07/08 00:54:32;;;;;;;15.32;2.53;;;14.80;99.90;;;;;;5066755;28;20131;-64
2022/07/08 00:56:58;;;;;;;5.90;1.40;;;14.80;99.90;;;;;;5067621;28;20119;-64
2022/07/08 00:59:24;;;;;;;5.75;1.20;;;14.70;99.90;;;;;;5067154;28;20071;-64
2022/07/08 01:01:50;;;;;;;6.75;1.85;;;14.70;99.90;;;;;;5066121;28;20052;-64
2022/07/08 01:04:17;;;;;;;3.83;1.33;;;14.70;99.90;;;;;;5066417;28;20075;-64
2022/07/08 01:06:42;;;;;;;7.75;1.60;;;14.60;99.90;;;;;;5067526;28;20071;-64
2022/07/08 01:09:09;;;;;;;6.50;1.02;;;14.60;99.90;;;;;;5066397;28;20091;-64
2022/07/08 01:11:34;;;;;;;9.88;2.03;;;14.50;99.90;;;;;;5066996;28;20044;-65
2022/07/08 01:14:00;;;;;;;9.75;1.95;;;14.50;99.90;;;;;;5066755;28;20045;-64
2022/07/08 01:16:26;;;;;;;3.90;1.02;;;14.50;99.90;;;;;;5065070;28;20109;-64
2022/07/08 01:18:51;;;;;;;6.45;1.50;;;14.40;99.90;;;;;;5066559;28;20083;-64
2022/07/08 01:21:17;;;;;;;10.27;1.88;;;14.40;99.90;;;;;;5066593;28;20072;-64
2022/07/08 01:23:43;;;;;;;7.63;1.55;;;14.40;99.90;;;;;;5066948;28;20044;-64
2022/07/08 01:26:11;;;;;;;6.25;1.85;;;14.30;99.90;;;;;;5066525;28;20040;-64
2022/07/08 01:28:39;;;;;;;6.80;1.17;;;14.20;99.90;;;;;;5066289;28;20365;-64
2022/07/08 01:31:05;;;;;;;5.65;1.17;;;14.00;99.90;;;;;;5066538;28;20063;-64
2022/07/08 01:33:31;;;;;;;3.00;1.20;;;14.00;99.90;;;;;;5066246;28;20403;-64
2022/07/08 01:35:56;;;;;;;9.45;1.33;;;14.00;99.90;;;;;;5065632;28;20375;-64
2022/07/08 01:38:22;;;;;;;6.30;1.67;;;13.90;99.90;;;;;;5065362;28;20049;-64
2022/07/08 01:40:48;;;;;;;7.40;1.58;;;13.90;99.90;;;;;;5066101;28;20166;-65
2022/07/08 01:43:14;;;;;;;6.85;1.60;;;14.00;99.90;;;;;;5066242;28;20048;-64
2022/07/08 01:45:39;;;;;;;3.83;1.40;;;13.90;99.90;;;;;;5066238;28;20048;-64
2022/07/08 01:48:05;;;;;;;8.13;1.77;;;13.80;99.90;;;;;;5066203;28;20048;-64
2022/07/08 01:50:31;;;;;;;5.60;1.55;;;13.80;99.90;;;;;;5065394;28;20127;-63
2022/07/08 01:52:56;;;;;;;15.80;2.53;;;13.80;99.90;;;;;;5066464;28;20039;-64
2022/07/08 01:55:22;;;;;;;8.70;1.50;;;13.80;99.90;;;;;;5066207;28;20056;-64
2022/07/08 01:57:48;;;;;;;8.73;1.25;;;13.70;99.90;;;;;;5080814;28;20041;-64
2022/07/08 02:00:14;;;;;;;8.05;1.15;;;13.60;99.90;;;;;;5066576;28;20537;-64
2022/07/08 02:02:40;;;;;;;7.95;2.17;;;13.60;99.90;;;;;;5066561;28;20048;-64
2022/07/08 02:05:06;;;;;;;5.88;1.63;;;13.50;99.90;;;;;;5065069;28;20211;-64
2022/07/08 02:07:33;;;;;;;4.60;1.63;;;13.40;99.90;;;;;;5066223;28;20040;-64
2022/07/08 02:09:59;;;;;;;11.02;1.63;;;13.40;99.90;;;;;;5064426;28;20419;-64
2022/07/08 02:12:25;;;;;;;4.15;1.23;;;13.40;99.90;;;;;;5065504;28;20053;-64
2022/07/08 02:14:52;;;;;;;5.43;1.23;;;13.40;99.90;;;;;;5064294;28;20048;-65
2022/07/08 02:17:19;;;;;;;6.78;1.20;;;13.40;99.90;;;;;;5065858;28;20469;-64
2022/07/08 02:19:45;;;;;;;4.70;1.67;;;13.40;99.90;;;;;;5065672;28;20082;-65
2022/07/08 02:22:11;;;;;;;6.65;1.88;;;13.40;99.90;;;;;;5066015;28;20049;-65
2022/07/08 02:24:37;;;;;;;8.75;1.65;;;13.40;99.90;;;;;;5066102;28;20044;-65
2022/07/08 02:27:04;;;;;;;6.63;1.38;;;13.40;99.90;;;;;;5064633;28;20083;-64
2022/07/08 02:29:30;;;;;;;5.22;1.25;;;13.30;99.90;;;;;;5066207;28;20352;-65
2022/07/08 02:31:56;;;;;;;8.25;1.52;;;13.30;99.90;;;;;;5064772;28;20044;-65
2022/07/08 02:34:22;;;;;;;5.03;1.48;;;13.20;99.90;;;;;;5065446;28;20048;-65
2022/07/08 02:36:47;;;;;;;6.70;1.90;;;13.20;99.90;;;;;;5065408;28;20044;-65
2022/07/08 02:39:13;;;;;;;5.47;1.73;;;13.10;99.90;;;;;;5065720;28;20794;-64
2022/07/08 02:41:39;;;;;;;6.57;1.63;;;13.10;99.90;;;;;;5065690;28;20101;-64
2022/07/08 02:44:06;;;;;;;5.20;1.95;;;13.10;99.90;;;;;;5064351;28;20460;-65
2022/07/08 02:46:32;;;;;;;8.32;1.58;;;13.10;99.90;;;;;;5064702;28;20044;-64
2022/07/08 02:48:57;;;;;;;6.18;2.00;;;13.10;99.90;;;;;;5065378;28;20782;-65
2022/07/08 02:51:23;;;;;;;9.95;2.28;;;13.10;99.90;;;;;;5064736;28;20045;-65
2022/07/08 02:53:48;;;;;;;8.13;1.88;;;13.00;99.90;;;;;;5068808;28;20507;-65
2022/07/08 02:56:14;;;;;;;6.82;2.03;;;13.00;99.90;;;;;;5068698;28;20502;-65
2022/07/08 02:58:40;;;;;;;8.50;1.75;;;12.90;99.90;;;;;;5069747;28;20403;-65
2022/07/08 03:01:05;;;;;;;5.55;1.58;;;12.90;99.90;;;;;;5068360;28;20103;-63
2022/07/08 03:03:31;;;;;;;10.88;1.50;;;12.80;99.90;;;;;;5069230;28;20117;-63
2022/07/08 03:05:56;;;;;;;11.73;1.88;;;12.80;99.90;;;;;;5067792;28;20053;-62
2022/07/08 03:08:22;;;;;;;5.10;1.67;;;12.80;99.90;;;;;;5068642;28;20151;-63
2022/07/08 03:10:49;;;;;;;8.05;2.20;;;12.80;99.90;;;;;;5068881;28;20044;-63
2022/07/08 03:13:14;;;;;;;3.50;1.63;;;12.70;99.90;;;;;;5069639;28;20499;-65
2022/07/08 03:15:40;;;;;;;4.05;1.65;;;12.70;99.90;;;;;;5068795;28;20049;-66
2022/07/08 03:18:06;;;;;;;7.07;1.80;;;12.70;99.90;;;;;;5068736;28;20892;-65
2022/07/08 03:20:32;;;;;;;8.80;2.00;;;12.70;99.90;;;;;;5069116;28;20050;-66
2022/07/08 03:22:57;;;;;;;7.57;2.00;;;12.60;99.90;;;;;;5068244;28;20492;-65
2022/07/08 03:25:23;;;;;;;7.28;1.67;;;12.60;99.90;;;;;;5069221;28;20048;-65
2022/07/08 03:27:48;;;;;;;5.55;1.67;;;12.60;99.90;;;;;;5067424;28;20044;-63
2022/07/08 03:30:14;;;;;;;3.90;1.52;;;12.60;99.90;;;;;;5068707;28;20057;-63
2022/07/08 03:32:40;;;;;;;6.47;1.48;;;12.60;99.90;;;;;;5067526;28;20040;-63
2022/07/08 03:35:06;;;;;;;5.00;1.73;;;12.60;99.90;;;;;;5068674;28;20457;-63
2022/07/08 03:37:31;;;;;;;6.05;1.45;;;12.60;99.90;;;;;;5068392;28;20045;-63
2022/07/08 03:41:19;;;;;;;11.82;2.10;;;12.60;99.90;;;;;;5068522;28;20044;-63
2022/07/08 03:42:42;;;;;;;5.03;1.70;;;12.60;99.90;;;;;;5068481;28;20052;-63
2022/07/08 03:45:08;;;;;;;9.63;2.05;;;12.50;99.90;;;;;;5068348;28;20045;-63
2022/07/08 03:47:35;;;;;;;8.00;1.98;;;12.50;99.90;;;;;;5068866;28;20116;-63
2022/07/08 03:50:00;;;;;;;11.80;1.95;;;12.60;99.90;;;;;;5067868;28;20483;-63
2022/07/08 03:52:26;;;;;;;8.60;1.75;;;12.50;99.90;;;;;;5068716;28;20040;-63
2022/07/08 03:54:51;;;;;;;6.32;1.70;;;12.60;99.90;;;;;;5066907;28;20052;-63
2022/07/08 03:57:17;;;;;;;6.57;1.60;;;12.50;99.90;;;;;;5068192;28;20045;-63
2022/07/08 03:59:43;;;;;;;6.18;1.52;;;12.50;99.90;;;;;;5068806;28;20503;-63
2022/07/08 04:02:08;;;;;;;8.45;1.90;;;12.60;99.90;;;;;;5068380;28;20071;-63
2022/07/08 04:04:34;;;;;;;5.43;1.42;;;12.60;99.90;;;;;;5067515;28;20055;-63
2022/07/08 04:06:59;;;;;;;10.00;2.42;;;12.60;99.90;;;;;;5068088;28;20048;-63
2022/07/08 04:09:25;;;;;;;5.18;1.73;;;12.60;99.90;;;;;;5068268;28;20047;-63
2022/07/08 04:11:51;;;;;;;6.05;1.90;;;12.70;99.90;;;;;;5067369;28;20083;-63
2022/07/08 04:14:16;;;;;;;8.05;1.52;;;12.80;99.90;;;;;;5068171;28;20055;-63
2022/07/08 04:16:42;;;;;;;10.55;2.00;;;12.80;99.90;;;;;;5068715;28;20040;-63
2022/07/08 04:19:08;;;;;;;4.20;1.73;;;12.80;99.90;;;;;;5067120;28;20044;-63
2022/07/08 04:21:33;;;;;;;13.18;2.25;;;12.90;99.90;;;;;;5067023;28;20059;-63
2022/07/08 04:24:00;;;;;;;7.90;1.90;;;13.00;99.90;;;;;;5083242;28;20501;-63
2022/07/08 04:26:31;;;;;;;5.30;1.67;;;12.00;99.90;;;;;;5066024;28;20052;-63
2022/07/08 04:29:00;;;;;;;4.38;1.60;;;13.10;99.90;;;;;;5067603;28;20399;-64
2022/07/08 04:31:27;;;;;;;5.03;1.42;;;13.10;99.90;;;;;;5067892;28;20048;-63
2022/07/08 04:33:55;;;;;;;9.85;2.17;;;13.20;99.90;;;;;;5067269;28;20053;-63
2022/07/08 04:36:22;;;;;;;7.95;2.13;;;13.20;99.90;;;;;;5067680;28;20048;-63
2022/07/08 04:38:48;;;;;;;8.18;1.88;;;13.30;99.90;;;;;;5066690;28;20474;-64
2022/07/08 04:41:14;;;;;;;15.90;3.22;;;13.30;99.90;;;;;;5068064;28;20040;-63
2022/07/08 04:43:40;;;;;;;3.83;1.33;;;13.40;99.90;;;;;;5067794;28;20055;-64
2022/07/08 04:46:06;;;;;;;5.30;1.55;;;13.40;99.90;;;;;;5066724;28;20055;-64
2022/07/08 04:48:31;;;;;;;10.80;2.17;;;13.50;99.90;;;;;;5067571;28;20484;-64
2022/07/08 04:50:57;;;;;;;5.85;1.52;;;13.50;99.90;;;;;;5067328;28;20560;-63
2022/07/08 04:53:23;;;;;;;12.05;3.15;;;13.60;99.90;;;;;;5066812;28;20040;-64
2022/07/08 04:55:49;;;;;;;8.48;2.13;;;13.60;99.90;;;;;;5067028;28;20482;-64
2022/07/08 04:58:15;;;;;;;3.40;1.50;;;13.70;99.90;;;;;;5066569;28;20098;-64
2022/07/08 05:00:41;;;;;;;15.88;2.10;;;13.70;99.90;;;;;;5066339;28;20060;-64
2022/07/08 05:03:06;;;;;;;5.55;2.10;;;13.80;99.90;;;;;;5067033;28;20203;-64
2022/07/08 05:05:33;;;;;;;7.28;2.10;;;13.80;99.90;;;;;;5066854;28;20495;-63
2022/07/08 05:07:59;;;;;;;5.40;2.00;;;13.90;99.90;;;;;;5064667;28;20044;-64
2022/07/08 05:10:25;;;;;;;7.50;2.33;;;13.90;99.90;;;;;;5067058;28;20127;-63
2022/07/08 05:12:51;;;;;;;9.38;1.90;;;14.00;99.90;;;;;;5065243;28;20079;-64
2022/07/08 05:15:17;;;;;;;9.27;2.78;;;14.00;99.90;;;;;;5065785;28;20101;-64
2022/07/08 05:17:43;;;;;;;16.95;2.30;;;14.00;99.90;;;;;;5067548;28;20055;-64
2022/07/08 05:20:10;;;;;;;5.25;1.65;;;14.10;99.90;;;;;;5066786;28;20044;-64
2022/07/08 05:22:36;;;;;;;10.30;2.55;;;14.10;99.90;;;;;;5066253;28;20068;-64
2022/07/08 05:25:07;;;;;;;6.68;1.98;;;14.20;99.90;;;;;;5065123;28;20112;-63
2022/07/08 05:27:33;;;;;;;6.22;2.00;;;14.30;99.90;;;;;;5066710;28;20090;-64
2022/07/08 05:29:59;;;;;;;9.35;2.28;;;14.30;99.90;;;;;;5065715;28;20056;-64
2022/07/08 05:32:24;;;;;;;9.38;2.47;;;14.40;99.90;;;;;;5066666;28;20051;-64
2022/07/08 05:34:50;;;;;;;10.48;2.45;;;14.60;99.90;;;;;;5065657;28;20048;-64
2022/07/08 05:37:16;;;;;;;7.40;2.40;;;14.60;99.90;;;;;;5066963;28;20040;-64
2022/07/08 05:39:43;;;;;;;8.80;2.88;;;14.60;99.90;;;;;;5066940;28;20047;-64
2022/07/08 05:42:10;;;;;;;9.68;2.10;;;14.70;99.90;;;;;;5065671;28;20243;-64
2022/07/08 05:44:36;;;;;;;15.52;3.42;;;14.80;99.90;;;;;;5066518;28;20068;-64
2022/07/08 05:47:07;;;;;;;6.97;1.90;;;14.90;99.90;;;;;;5066250;28;20395;-64
2022/07/08 05:49:34;;;;;;;9.95;2.08;;;14.90;99.90;;;;;;5065673;28;20052;-64
2022/07/08 05:52:00;;;;;;;15.70;2.78;;;15.00;99.90;;;;;;5064709;28;20063;-64
2022/07/08 05:54:26;;;;;;;4.32;1.80;;;15.00;99.90;;;;;;5065005;28;20458;-64
2022/07/08 05:56:51;;;;;;;5.28;2.20;;;15.10;99.90;;;;;;5065186;28;20499;-63
2022/07/08 05:59:17;;;;;;;10.13;2.88;;;15.10;99.90;;;;;;5066042;28;20067;-63
2022/07/08 06:01:42;;;;;;;9.88;1.92;;;15.20;99.90;;;;;;5065752;28;20403;-64
2022/07/08 06:04:08;;;;;;;5.85;2.13;;;15.30;99.90;;;;;;5064095;28;20048;-64
2022/07/08 06:06:34;;;;;;;12.75;2.22;;;15.30;99.90;;;;;;5065944;28;20048;-64
2022/07/08 06:08:59;;;;;;;8.65;1.88;;;15.40;99.90;;;;;;5065757;28;20513;-64
2022/07/08 06:11:25;;;;;;;14.70;2.22;;;15.40;99.90;;;;;;5065678;28;20097;-64
2022/07/08 06:13:50;;;;;;;10.40;2.08;;;15.50;99.90;;;;;;5065741;28;20048;-64
2022/07/08 06:16:17;;;;;;;8.70;1.90;;;15.50;99.90;;;;;;5066410;28;20442;-64
2022/07/08 06:18:42;;;;;;;7.25;1.83;;;15.50;99.90;;;;;;5065683;28;20040;-64
2022/07/08 06:21:08;;;;;;;13.45;2.80;;;15.60;99.90;;;;;;5065433;28;20090;-64
2022/07/08 06:23:36;;;;;;;9.70;2.22;;;15.60;99.90;;;;;;5065810;28;20479;-64
2022/07/08 06:26:02;;;;;;;5.78;2.20;;;15.70;99.90;;;;;;5064330;28;20157;-63
2022/07/08 06:28:27;;;;;;;8.90;1.75;;;15.70;99.90;;;;;;5065326;28;20116;-64
2022/07/08 06:30:53;;;;;;;6.82;1.73;;;15.70;99.90;;;;;;5065394;28;20766;-63
2022/07/08 06:33:18;;;;;;;9.23;1.90;;;15.80;99.90;;;;;;5064904;28;20044;-64
2022/07/08 06:35:44;;;;;;;6.25;2.22;;;15.80;99.90;;;;;;5064810;28;20467;-64
2022/07/08 06:38:10;;;;;;;9.93;1.98;;;15.90;99.90;;;;;;5064577;28;20048;-64
2022/07/08 06:40:35;;;;;;;8.80;2.08;;;16.00;99.90;;;;;;5064582;28;20064;-64
2022/07/08 06:43:01;;;;;;;5.53;1.73;;;16.10;99.90;;;;;;5065270;28;20049;-64
2022/07/08 06:45:30;;;;;;;11.93;1.80;;;16.20;99.90;;;;;;5064754;28;20060;-64
2022/07/08 06:47:56;;;;;;;10.65;2.05;;;16.20;99.90;;;;;;5065824;28;20076;-64
2022/07/08 06:50:21;;;;;;;9.85;1.88;;;16.40;99.90;;;;;;5065316;28;20082;-64
2022/07/08 06:52:47;;;;;;;6.57;1.83;;;16.50;99.90;;;;;;5065029;28;20041;-64
2022/07/08 06:55:12;;;;;;;3.40;1.60;;;16.60;99.90;;;;;;5065813;28;20088;-64
2022/07/08 06:57:38;;;;;;;7.28;1.75;;;16.70;99.90;;;;;;5065648;28;20072;-64
2022/07/08 07:00:05;;;;;;;8.55;1.95;;;16.70;99.90;;;;;;5064361;28;20489;-64
2022/07/08 07:02:30;;;;;;;8.40;1.92;;;16.70;99.90;;;;;;5065377;28;20048;-64
2022/07/08 07:04:56;;;;;;;4.95;1.90;;;16.70;99.90;;;;;;5065275;28;20095;-64
2022/07/08 07:07:22;;;;;;;6.90;1.70;;;16.80;99.90;;;;;;5065085;28;20044;-64
2022/07/08 07:09:48;;;;;;;22.90;2.38;;;16.80;99.90;;;;;;5063615;28;20431;-64
2022/07/08 07:12:14;;;;;;;13.77;2.40;;;16.80;99.90;;;;;;5066010;28;20044;-64
2022/07/08 07:14:40;;;;;;;8.05;2.00;;;16.90;99.90;;;;;;5064710;28;20486;-64
2022/07/08 07:17:06;;;;;;;9.77;2.58;;;16.90;99.90;;;;;;5065074;28;20080;-64
2022/07/08 07:19:31;;;;;;;7.95;2.45;;;17.00;99.90;;;;;;5065276;28;20119;-64
2022/07/08 07:21:57;;;;;;;7.07;2.00;;;17.00;99.90;;;;;;5064557;28;20052;-64
2022/07/08 07:24:23;;;;;;;9.20;2.05;;;17.10;99.90;;;;;;5063881;28;20040;-64
2022/07/08 07:26:48;;;;;;;6.28;2.38;;;17.20;99.90;;;;;;5065116;28;20099;-64
2022/07/08 07:29:14;;;;;;;6.88;2.03;;;17.20;99.90;;;;;;5065148;28;20044;-64
2022/07/08 07:31:39;;;;;;;3.45;1.42;;;17.30;99.90;;;;;;5065047;28;20041;-64
2022/07/08 07:34:06;;;;;;;5.65;1.58;;;17.40;99.90;;;;;;5064739;28;20048;-64
2022/07/08 07:36:32;;;;;;;6.35;1.48;;;17.40;99.90;;;;;;5064572;28;20407;-64
2022/07/08 07:38:57;;;;;;;6.90;1.67;;;17.40;99.90;;;;;;5067555;28;20045;-64
2022/07/08 07:41:23;;;;;;;2.53;1.52;;;17.50;99.90;;;;;;5068030;28;20047;-66
2022/07/08 07:43:49;;;;;;;4.97;2.03;;;17.50;99.90;;;;;;5068577;28;20044;-64
2022/07/08 07:46:14;;;;;;;6.75;1.80;;;17.50;99.90;;;;;;5069261;28;20032;-63
2022/07/08 07:48:40;;;;;;;6.47;1.90;;;17.60;99.90;;;;;;5067586;28;20128;-64
2022/07/08 07:51:05;;;;;;;7.35;1.88;;;17.60;99.90;;;;;;5068597;28;20609;-64
2022/07/08 07:53:31;;;;;;;10.38;1.90;;;17.60;99.90;;;;;;5068798;28;20045;-64
2022/07/08 07:56:00;;;;;;;7.47;1.88;;;17.60;99.90;;;;;;5067637;28;20460;-64
2022/07/08 07:58:25;;;;;;;4.25;1.50;;;17.60;99.90;;;;;;5068608;28;20410;-64
2022/07/08 08:00:52;;;;;;;3.97;1.80;;;17.70;99.90;;;;;;5067905;28;20127;-64
2022/07/08 08:03:17;;;;;;;6.45;2.00;;;17.70;99.90;;;;;;5067546;28;20052;-64
2022/07/08 08:05:43;;;;;;;5.38;1.23;;;17.70;99.90;;;;;;5069211;28;20406;-64
2022/07/08 08:08:10;;;;;;;6.25;1.70;;;17.70;99.90;;;;;;5068181;28;20105;-64
2022/07/08 08:10:36;;;;;;;5.30;1.80;;;17.70;99.90;;;;;;5066574;28;20063;-64
2022/07/08 08:13:01;;;;;;;6.65;2.10;;;17.70;99.90;;;;;;5066639;28;20045;-63
2022/07/08 08:15:29;;;;;;;4.57;1.55;;;17.80;99.90;;;;;;5068297;28;20110;-64
2022/07/08 08:17:59;;;;;;;6.05;1.92;;;17.80;99.90;;;;;;5067036;28;20088;-64
2022/07/08 08:20:27;;;;;;;7.57;1.58;;;17.80;99.90;;;;;;5066669;28;20049;-64
2022/07/08 08:22:53;;;;;;;9.07;1.90;;;17.80;99.90;;;;;;5067900;28;20036;-64
2022/07/08 08:25:20;;;;;;;5.93;1.40;;;17.90;99.90;;;;;;5067207;28;20048;-64
2022/07/08 08:27:46;;;;;;;6.32;1.63;;;17.90;99.90;;;;;;5069132;28;20115;-64
2022/07/08 08:30:12;;;;;;;12.93;2.05;;;17.90;99.90;;;;;;5068536;28;20043;-64
2022/07/08 08:32:38;;;;;;;6.43;2.63;;;17.90;99.90;;;;;;5067082;28;20052;-64
2022/07/08 08:35:05;;;;;;;10.07;1.85;;;18.00;99.90;;;;;;5067496;28;20051;-64
2022/07/08 08:37:30;;;;;;;6.13;1.77;;;18.00;99.90;;;;;;5067743;28;20089;-64
2022/07/08 08:39:56;;;;;;;11.13;2.15;;;18.00;99.90;;;;;;5066679;28;20044;-65
2022/07/08 08:42:23;;;;;;;6.18;1.98;;;18.20;99.90;;;;;;5067667;28;20040;-65
2022/07/08 08:44:49;;;;;;;7.05;1.80;;;18.00;99.90;;;;;;5067000;28;20099;-65
2022/07/08 08:47:16;;;;;;;11.88;1.80;;;18.10;99.90;;;;;;5068321;28;20127;-65
2022/07/08 08:49:42;;;;;;;5.15;1.92;;;18.20;99.90;;;;;;5067424;28;20114;-65
2022/07/08 08:52:10;;;;;;;10.45;2.22;;;18.20;99.90;;;;;;5066375;28;20573;-65
2022/07/08 08:54:37;;;;;;;7.15;1.63;;;18.20;99.90;;;;;;5067288;28;20123;-65
2022/07/08 08:57:05;;;;;;;7.30;1.55;;;18.30;99.90;;;;;;5066054;28;20047;-65
2022/07/08 08:59:33;;;;;;;5.00;2.22;;;18.30;99.90;;;;;;5066234;28;20402;-65
2022/07/08 09:02:00;;;;;;;5.70;1.50;;;18.40;99.90;;;;;;5065785;28;20136;-65
2022/07/08 09:04:28;;;;;;;5.00;1.35;;;18.40;99.90;;;;;;5067194;28;20487;-65
2022/07/08 09:06:54;;;;;;;5.93;1.75;;;18.40;99.90;;;;;;5066461;28;20407;-65
2022/07/08 09:09:19;;;;;;;6.15;1.30;;;18.50;99.90;;;;;;5067119;28;20052;-65
2022/07/08 09:11:45;;;;;;;4.70;1.15;;;18.50;99.90;;;;;;5067555;28;20523;-65
2022/07/08 09:14:15;;;;;;;3.78;1.10;;;18.60;99.90;;;;;;5065654;28;20086;-64
2022/07/08 09:17:09;;;;;;;4.70;1.85;;;18.60;99.90;;;;;;5066253;28;20128;-65
2022/07/08 09:19:36;;;;;;;6.18;1.40;;;18.70;99.90;;;;;;5067141;28;20053;-65
2022/07/08 09:22:02;;;;;;;6.60;1.38;;;18.80;99.90;;;;;;5065905;28;20123;-65
2022/07/08 09:24:28;;;;;;;8.02;1.77;;;18.70;99.90;;;;;;5066715;28;20182;-64
2022/07/08 09:27:01;;;;;;;2.80;1.25;;;18.80;99.90;;;;;;5065822;28;20044;-65
2022/07/08 09:29:26;;;;;;;3.85;1.35;;;19.10;99.90;;;;;;5066833;28;20040;-65
2022/07/08 09:31:52;;;;;;;5.38;1.52;;;17.90;99.90;;;;;;5065061;28;20040;-65
2022/07/08 09:34:20;;;;;;;3.72;1.27;;;19.00;99.90;;;;;;5065840;28;20048;-65
2022/07/08 09:36:48;;;;;;;8.25;1.88;;;18.90;99.90;;;;;;5066885;28;20055;-65
2022/07/08 09:39:27;;;;;;;5.38;1.77;;;19.00;99.90;;;;;;5065893;28;20088;-65
2022/07/08 09:41:53;;;;;;;6.40;1.60;;;19.10;99.90;;;;;;5065562;28;20041;-65
2022/07/08 09:44:22;;;;;;;5.75;1.85;;;19.10;99.90;;;;;;5066650;28;20407;-64
2022/07/08 09:46:49;;;;;;;5.20;1.30;;;19.20;99.90;;;;;;5066099;28;20456;-65
2022/07/08 09:49:32;;;;;;;4.35;1.52;;;19.30;99.90;;;;;;5066352;28;20047;-65
2022/07/08 09:51:58;;;;;;;3.28;1.35;;;19.30;99.90;;;;;;5066419;28;20052;-65
2022/07/08 09:54:26;;;;;;;3.60;1.42;;;19.30;99.90;;;;;;5066244;28;20044;-65
2022/07/08 09:57:01;;;;;;;7.90;1.85;;;19.30;99.90;;;;;;5065239;28;20060;-65
2022/07/08 09:59:28;;;;;;;5.65;1.42;;;19.30;99.90;;;;;;5064279;28;20063;-65
2022/07/08 10:01:54;;;;;;;11.00;2.17;;;19.30;99.90;;;;;;5065508;28;20048;-65
2022/07/08 10:04:23;;;;;;;6.40;1.75;;;19.50;99.90;;;;;;5065546;28;20085;-65
2022/07/08 10:06:52;;;;;;;5.47;1.77;;;19.60;99.90;;;;;;5064520;28;20055;-65
2022/07/08 10:09:19;;;;;;;3.33;1.65;;;19.70;99.90;;;;;;5065284;28;20240;-65
2022/07/08 10:11:47;;;;;;;5.57;1.77;;;19.70;99.90;;;;;;5066491;28;20040;-65
2022/07/08 10:14:13;;;;;;;6.28;1.88;;;19.70;99.90;;;;;;5066559;28;20057;-65
2022/07/08 10:16:41;;;;;;;5.35;1.77;;;19.70;99.90;;;;;;5065225;28;20289;-65
2022/07/08 10:19:11;;;;;;;4.65;1.50;;;19.70;99.90;;;;;;5064278;28;20312;-65
2022/07/08 10:21:39;;;;;;;3.75;1.38;;;19.80;99.90;;;;;;5065947;28;20413;-65
2022/07/08 10:24:10;;;;;;;3.58;1.45;;;19.80;99.90;;;;;;5064943;28;20040;-65
2022/07/08 10:26:40;;;;;;;4.77;1.77;;;19.80;99.90;;;;;;5065778;28;20481;-65
2022/07/08 10:29:10;;;;;;;5.40;1.73;;;19.80;99.90;;;;;;5065493;28;20731;-65
2022/07/08 10:31:47;;;;;;;3.85;1.48;;;19.90;99.90;;;;;;5064969;28;20288;-65
2022/07/08 10:34:16;;;;;;;6.53;1.70;;;19.90;99.90;;;;;;5065264;28;20052;-65
2022/07/08 10:36:50;;;;;;;5.70;1.98;;;20.00;99.90;;;;;;5066374;28;20123;-65
2022/07/08 10:39:27;;;;;;;5.05;1.95;;;20.10;99.90;;;;;;5065577;28;20033;-65
2022/07/08 10:42:02;;;;;;;5.93;1.73;;;20.10;99.90;;;;;;5063994;28;20102;-65
2022/07/08 10:44:43;;;;;;;6.75;2.25;;;20.20;99.90;;;;;;5064891;28;20047;-65
2022/07/08 10:47:09;;;;;;;4.03;1.60;;;20.20;99.90;;;;;;5065422;28;20048;-65
2022/07/08 10:49:46;;;;;;;4.70;1.65;;;20.30;99.90;;;;;;5065846;28;20084;-65
2022/07/08 10:52:17;;;;;;;6.03;1.70;;;20.10;99.90;;;;;;5065424;28;20045;-65
2022/07/08 10:54:43;;;;;;;3.45;1.40;;;20.70;99.90;;;;;;5066204;28;20064;-64
2022/07/08 10:57:26;;;;;;;7.55;2.15;;;20.80;99.90;;;;;;5065437;28;20119;-65
2022/07/08 11:00:07;;;;;;;3.40;1.63;;;20.80;99.90;;;;;;5064544;28;20507;-65
2022/07/08 11:02:39;;;;;;;5.15;1.40;;;20.80;99.90;;;;;;5065482;28;20105;-66
2022/07/08 11:05:05;;;;;;;11.70;2.03;;;20.80;99.90;;;;;;5064013;28;20052;-65
2022/07/08 11:07:31;;;;;;;6.40;1.67;;;20.80;99.90;;;;;;5064651;28;20305;-65
2022/07/08 11:10:08;;;;;;;5.95;2.03;;;20.90;99.90;;;;;;5065238;28;20044;-65
2022/07/08 11:13:00;;;;;;;5.55;1.88;;;20.90;99.90;;;;;;5065127;28;20053;-65
2022/07/08 11:15:26;;;;;;;8.93;2.08;;;21.00;99.90;;;;;;5066170;28;20083;-64
2022/07/08 11:17:54;;;;;;;6.10;1.90;;;21.10;99.90;;;;;;5067604;28;20080;-65
2022/07/08 11:20:20;;;;;;;5.75;1.63;;;21.30;99.90;;;;;;5068433;28;20473;-65
2022/07/08 11:22:47;;;;;;;3.63;1.75;;;21.40;99.90;;;;;;5069333;28;20053;-65
2022/07/08 11:25:16;;;;;;;8.55;2.40;;;21.40;99.90;;;;;;5069723;28;20052;-65
2022/07/08 11:27:43;;;;;;;3.20;1.75;;;21.50;99.90;;;;;;5067802;28;20123;-65
2022/07/08 11:30:11;;;;;;;4.13;1.77;;;21.60;99.90;;;;;;5068817;28;20048;-65
2022/07/08 11:32:39;;;;;;;4.53;1.70;;;21.60;99.90;;;;;;5068856;28;20052;-65
2022/07/08 11:35:05;;;;;;;5.97;1.90;;;21.70;99.90;;;;;;5068025;28;20127;-65
2022/07/08 11:37:32;;;;;;;7.18;2.60;;;21.80;99.90;;;;;;5068920;28;20093;-65
2022/07/08 11:39:59;;;;;;;6.50;2.20;;;21.70;99.90;;;;;;5068433;28;20091;-65
2022/07/08 11:42:24;;;;;;;5.43;1.90;;;21.70;99.90;;;;;;5068104;28;20048;-65
2022/07/08 11:44:51;;;;;;;10.10;2.55;;;21.80;99.90;;;;;;5067243;28;20060;-65
2022/07/08 11:47:22;;;;;;;7.13;2.28;;;21.60;99.90;;;;;;5068798;28;20052;-65
2022/07/08 11:49:49;;;;;;;5.53;1.60;;;21.80;99.90;;;;;;5067802;28;20083;-65
2022/07/08 11:52:18;;;;;;;7.68;1.80;;;21.70;99.90;;;;;;5068872;28;20041;-65
2022/07/08 11:54:46;;;;;;;5.03;2.15;;;21.60;99.90;;;;;;5067473;28;20165;-65
2022/07/08 11:57:13;;;;;;;5.43;2.90;;;21.60;99.90;;;;;;5069190;28;20045;-65
2022/07/08 11:59:39;;;;;;;7.82;2.17;;;21.80;99.90;;;;;;5068478;28;20114;-65
2022/07/08 12:02:05;;;;;;;10.77;2.67;;;21.80;99.90;;;;;;5067380;28;20083;-65
2022/07/08 12:04:31;;;;;;;10.13;2.97;;;21.90;99.90;;;;;;5068273;28;20495;-65
2022/07/08 12:06:59;;;;;;;9.35;2.58;;;21.80;99.90;;;;;;5066736;28;20048;-65
2022/07/08 12:09:27;;;;;;;8.32;2.53;;;21.90;99.90;;;;;;5067540;28;20499;-65
2022/07/08 12:11:54;;;;;;;7.25;2.80;;;22.10;99.90;;;;;;5068111;28;20076;-65
2022/07/08 12:14:21;;;;;;;4.65;1.83;;;22.30;99.90;;;;;;5067948;28;20052;-65
2022/07/08 12:16:52;;;;;;;4.40;1.83;;;22.60;99.90;;;;;;5067757;28;20084;-65
2022/07/08 12:19:37;;;;;;;8.93;2.33;;;22.70;99.90;;;;;;5068303;28;20425;-65
2022/07/08 12:22:07;;;;;;;5.30;2.50;;;22.80;99.90;;;;;;5068063;28;20106;-65
2022/07/08 12:24:38;;;;;;;9.43;2.22;;;22.70;99.90;;;;;;5065755;28;20438;-65
2022/07/08 12:27:16;;;;;;;4.25;1.70;;;22.60;99.90;;;;;;5067922;28;20048;-65
2022/07/08 12:29:43;;;;;;;7.28;2.25;;;22.60;99.90;;;;;;5068303;28;20079;-65
2022/07/08 12:32:10;;;;;;;8.98;2.67;;;22.60;99.90;;;;;;5067026;28;20037;-65
2022/07/08 12:34:36;;;;;;;5.57;2.40;;;22.60;99.90;;;;;;5067703;28;20048;-65
2022/07/08 12:37:18;;;;;;;6.43;2.08;;;22.60;99.90;;;;;;5066670;28;20518;-65
2022/07/08 12:39:44;;;;;;;6.15;2.13;;;22.70;99.90;;;;;;5068256;28;20044;-65
2022/07/08 12:42:11;;;;;;;6.38;1.80;;;22.90;99.90;;;;;;5067387;28;20048;-65
2022/07/08 12:44:41;;;;;;;10.23;3.10;;;22.80;99.90;;;;;;5066837;28;20357;-65